Airfield :
LOGIN :

Register | Disclaimer

   EN    FR    IT 

 










Legend :    VFR   Marginal VFR   IFR   Intensive IFR   Very Intensive IFR
Visi :
Ceiling :
>= 8 km
>= 3000ft
5 to 8 km
1000 to 3000 ft
1500m to 5 km
500 to 1000 ft
800 to 1500m
200 to 500 ft
< 800m
< 200 ft
Symbols :   Thunderstorms  Fog  Heavy snow  Heavy precipitations  Wind > 20 kt
SIGMETs :     Misc.  Thunderstorms  Icing  Turbulence  Mountain Waves  Volcanic Ashes







- Airport Elevation : 38 ft
- IATA code : ADX


EGQL - RAF Leuchars

CURRENT METAR :
  • 220350Z 25007KT CAVOK 01/01 Q0998 BLU

EXPIRED METARs :
  • 220250Z 26007KT 9999 FEW006 SCT060 00/00 Q0998 BLU
  • 220150Z 22002KT 9999 FEW045 M01/M01 Q0998 BLU

TAF TAF EGQL
Valid from the 22 at 03:00 until the 22 at 12:00 UTC


220117Z 2203/2212 VRB03KT 9999 SCT030
PROB30
TEMPO 2209/2212 25015G25KT
No reported NOTAMs for that airfield.
1 SIGMET reported for the Scottish FIR (EGPX) :
 
Severe mountain waves
EGPX SIGMET 01 VALID 220230/220630 EGRR
EGPX SCOTTISH FIR SEV MTW FCST WI N5500 E00025 - N5500 W00348 - N5602 W00458 - N5817 W00628 - N5851 W00236 - N5500 E00025 FL040/270 STNR NC=



MET'MAP, your aeronautical weather chart ! - Copyright ORBIFLY December 2007 - Disclaimer

ORBIFLY MET'MAP TEAM :

Programming & Development : Alexandra Zaïnal
Concept & Development : Baudouin d'Aumeries
Co-Development & Prog : Marc-Olivier Méhu
Technical & hardware support : Manuel Goepfert

Contact : metmap@orbifly.com




SOURCES & CREDITS :

   NOAA